Time;durP1;ratioP1;P1;durP2;ratioP2;P2;SDS_P1;SDS_P2;PMS_P1;PMS_P2;Temp;Humidity;BMP_temperature;BMP_pressure;BME280_temperature;BME280_humidity;BME280_pressure;Samples;Min_cycle;Max_cycle;Signal;HPM_P1;HPM_P2
2021/12/07 00:01:23;;;;;;;2.60;2.12;;;;;;;22.15;35.54;99193.69;1886809;75;28255;-66
2021/12/07 00:04:12;;;;;;;2.60;2.33;;;;;;;22.13;35.56;99185.70;1921532;74;28161;-64
2021/12/07 00:07:01;;;;;;;2.80;2.40;;;;;;;22.12;35.61;99203.73;1900940;73;28246;-64
2021/12/07 00:09:50;;;;;;;2.83;2.37;;;;;;;22.10;35.62;99216.25;1870097;76;28179;-64
2021/12/07 00:12:41;;;;;;;2.40;2.30;;;;;;;22.10;35.67;99207.23;1870365;76;28155;-64
2021/12/07 00:15:30;;;;;;;2.47;2.30;;;;;;;22.12;35.66;99200.99;1891762;75;28235;-63
2021/12/07 00:18:19;;;;;;;2.45;2.25;;;;;;;22.12;35.60;99206.46;1909818;73;28108;-64
2021/12/07 00:21:09;;;;;;;2.30;2.20;;;;;;;22.13;35.63;99213.58;1916235;73;28579;-63
2021/12/07 00:23:57;;;;;;;2.30;2.20;;;;;;;22.10;35.68;99214.08;1871994;76;28249;-64
2021/12/07 00:26:46;;;;;;;2.55;2.35;;;;;;;22.10;35.71;99216.81;1918084;74;28152;-64
2021/12/07 00:29:34;;;;;;;2.50;2.30;;;;;;;22.09;35.70;99224.18;1904514;75;28147;-64
2021/12/07 00:32:29;;;;;;;2.50;2.30;;;;;;;22.12;35.66;99235.19;1904325;75;28168;-64
2021/12/07 00:38:11;;;;;;;2.30;2.10;;;;;;;22.11;35.71;99232.98;1904479;73;28051;-64
2021/12/07 00:41:01;;;;;;;2.55;2.20;;;;;;;22.09;35.71;99231.02;1900030;74;28200;-64
2021/12/07 00:43:50;;;;;;;2.40;2.27;;;;;;;22.10;35.72;99233.23;1872194;76;28194;-64
2021/12/07 00:46:38;;;;;;;2.75;2.40;;;;;;;22.08;35.75;99225.23;1883247;75;28313;-64
2021/12/07 00:49:26;;;;;;;2.45;2.25;;;;;;;22.08;35.77;99231.27;1881775;75;28140;-64
2021/12/07 00:52:15;;;;;;;2.50;2.22;;;;;;;22.06;35.81;99229.28;1908371;73;28113;-66
2021/12/07 00:55:06;;;;;;;2.33;2.20;;;;;;;22.08;35.75;99227.16;1885608;73;28148;-66
2021/12/07 00:57:57;;;;;;;2.37;2.00;;;;;;;22.09;35.76;99235.66;1904574;75;28113;-66
2021/12/07 01:00:49;;;;;;;2.40;2.20;;;;;;;22.10;35.76;99227.76;1927224;73;35101;-63
2021/12/07 01:03:39;;;;;;;2.27;2.08;;;;;;;22.09;35.76;99221.45;1932755;73;28094;-66
2021/12/07 01:07:06;;;;;;;2.30;2.20;;;;;;;22.07;35.77;99222.22;1917452;73;28030;-66
2021/12/07 01:09:35;;;;;;;2.72;2.22;;;;;;;22.09;35.78;99217.88;1860110;76;28160;-66
2021/12/07 01:24:44;;;;;;;1.95;1.85;;;;;;;21.99;35.96;99246.65;1876465;75;28315;-64
2021/12/07 01:27:33;;;;;;;2.27;2.07;;;;;;;22.03;35.93;99253.02;1883237;74;28324;-64
2021/12/07 01:30:35;;;;;;;2.65;2.45;;;;;;;22.06;35.86;99253.89;1872069;76;28259;-64
2021/12/07 02:00:52;;;;;;;1.90;1.80;;;;;;;21.98;35.97;99269.59;1939904;73;28065;-63
2021/12/07 02:03:41;;;;;;;2.17;2.08;;;;;;;21.95;36.00;99275.55;1938488;73;28151;-63
2021/12/07 02:06:31;;;;;;;2.02;1.92;;;;;;;21.96;36.00;99275.83;1921942;73;28116;-66
2021/12/07 02:09:19;;;;;;;1.95;1.85;;;;;;;21.97;36.02;99281.61;1947023;73;28076;-63
2021/12/07 02:12:12;;;;;;;2.00;1.90;;;;;;;22.00;35.96;99280.31;1923062;73;28032;-63
2021/12/07 02:15:01;;;;;;;2.02;1.90;;;;;;;22.01;35.93;99282.80;1922487;73;28102;-66
2021/12/07 02:17:51;;;;;;;2.10;2.00;;;;;;;21.99;36.00;99280.84;1939393;73;28069;-64
2021/12/07 02:20:40;;;;;;;1.90;1.80;;;;;;;21.99;35.97;99274.53;1926995;73;27624;-65
2021/12/07 02:23:29;;;;;;;2.77;1.90;;;;;;;21.98;35.98;99277.79;1947020;73;28015;-65
2021/12/07 02:26:18;;;;;;;1.90;1.80;;;;;;;22.00;35.98;99278.94;1945971;73;27617;-65
2021/12/07 02:29:07;;;;;;;2.07;1.87;;;;;;;22.03;35.97;99274.38;1939236;73;28066;-63
2021/12/07 02:31:58;;;;;;;2.00;1.90;;;;;;;22.03;35.95;99274.38;1938690;73;28149;-63
2021/12/07 02:34:57;;;;;;;2.15;1.90;;;;;;;21.98;35.96;99281.89;1938756;73;28596;-63
2021/12/07 02:37:43;;;;;;;1.83;1.73;;;;;;;22.00;36.01;99289.36;1933740;73;28064;-63
2021/12/07 02:40:32;;;;;;;1.90;1.80;;;;;;;21.94;36.06;99290.80;1926502;73;28167;-66
2021/12/07 02:43:20;;;;;;;2.12;1.92;;;;;;;21.94;36.09;99294.38;1926744;73;28078;-64
2021/12/07 02:46:09;;;;;;;1.90;1.80;;;;;;;21.97;36.05;99304.86;1935174;73;28123;-64
2021/12/07 02:48:58;;;;;;;2.00;1.80;;;;;;;21.97;36.05;99299.91;1941010;73;28030;-64
2021/12/07 02:51:48;;;;;;;1.73;1.63;;;;;;;22.00;36.03;99298.09;1938050;73;28055;-65
2021/12/07 02:54:43;;;;;;;1.90;1.80;;;;;;;22.01;36.00;99297.00;1909110;74;28058;-64
2021/12/07 02:57:30;;;;;;;1.87;1.77;;;;;;;21.97;36.04;99303.48;1939344;73;28126;-63
2021/12/07 03:00:26;;;;;;;1.72;1.62;;;;;;;21.97;36.07;99318.53;1933826;73;28098;-63
2021/12/07 03:03:14;;;;;;;1.90;1.80;;;;;;;21.94;36.08;99326.36;1929158;73;27898;-63
2021/12/07 03:06:16;;;;;;;1.90;1.80;;;;;;;21.94;36.14;99324.46;1924194;73;27894;-64
2021/12/07 03:27:24;;;;;;;1.60;1.50;;;;;;;21.85;36.25;99346.37;1942230;73;28246;-66
2021/12/07 03:30:14;;;;;;;1.73;1.63;;;;;;;21.85;36.22;99338.70;1917973;73;27867;-63
2021/12/07 03:33:03;;;;;;;1.80;1.70;;;;;;;21.89;36.19;99335.83;1942819;73;28145;-63
2021/12/07 03:35:52;;;;;;;1.52;1.52;;;;;;;21.92;36.12;99325.77;1938474;73;28365;-64
2021/12/07 03:38:42;;;;;;;1.70;1.60;;;;;;;21.88;36.14;99330.87;1935652;73;28057;-66
2021/12/07 03:41:30;;;;;;;1.70;1.60;;;;;;;21.89;36.14;99343.47;1946715;72;28646;-66
2021/12/07 03:44:21;;;;;;;1.60;1.50;;;;;;;21.90;36.11;99342.41;1934028;73;27936;-66
2021/12/07 03:47:10;;;;;;;1.72;1.62;;;;;;;21.88;36.08;99343.19;1939807;73;28100;-66
2021/12/07 03:49:59;;;;;;;1.60;1.57;;;;;;;21.89;36.09;99343.47;1936997;72;28099;-66
2021/12/07 03:52:49;;;;;;;1.92;1.72;;;;;;;21.90;36.09;99353.35;1944637;72;28230;-65
2021/12/07 03:55:40;;;;;;;1.60;1.50;;;;;;;21.90;36.08;99356.09;1922033;73;28086;-64
2021/12/07 03:58:28;;;;;;;1.45;1.45;;;;;;;21.88;36.05;99354.13;1930396;73;28064;-64
2021/12/07 04:01:17;;;;;;;1.60;1.50;;;;;;;21.86;36.07;99363.09;1915913;74;27982;-64
2021/12/07 04:04:07;;;;;;;1.70;1.60;;;;;;;21.86;36.12;99368.56;1940897;73;28466;-63
2021/12/07 04:06:55;;;;;;;1.70;1.52;;;;;;;21.88;36.08;99373.80;1933276;73;28027;-64
2021/12/07 04:09:44;;;;;;;1.65;1.50;;;;;;;21.91;36.02;99372.78;1890047;75;28495;-64
2021/12/07 04:12:34;;;;;;;1.80;1.70;;;;;;;21.89;36.04;99375.47;1921008;73;28027;-64
2021/12/07 04:15:23;;;;;;;1.60;1.50;;;;;;;21.88;36.05;99371.90;1864871;76;28144;-64
2021/12/07 04:18:13;;;;;;;1.67;1.57;;;;;;;21.84;36.10;99372.04;1878152;75;28297;-64
2021/12/07 04:21:02;;;;;;;1.47;1.40;;;;;;;21.86;36.07;99365.84;1883837;75;28139;-64
2021/12/07 04:23:51;;;;;;;1.72;1.50;;;;;;;21.88;36.00;99373.27;1836152;77;28279;-64
2021/12/07 04:26:40;;;;;;;1.50;1.42;;;;;;;21.86;35.97;99367.20;1915631;73;28139;-64
2021/12/07 04:29:29;;;;;;;1.32;1.32;;;;;;;21.83;36.02;99359.42;1915852;73;28110;-64
2021/12/07 04:32:17;;;;;;;2.22;1.50;;;;;;;21.81;36.06;99370.28;1871049;76;28140;-64
2021/12/07 04:35:06;;;;;;;1.40;1.40;;;;;;;21.82;36.05;99378.25;1864850;76;28222;-64
2021/12/07 04:37:56;;;;;;;1.55;1.45;;;;;;;21.84;36.02;99376.14;1872728;76;28286;-64
2021/12/07 04:40:45;;;;;;;1.70;1.60;;;;;;;21.84;35.99;99367.13;1875613;75;28192;-65
2021/12/07 04:43:35;;;;;;;1.50;1.40;;;;;;;21.85;35.92;99366.89;1886163;75;28342;-65
2021/12/07 04:46:34;;;;;;;1.65;1.55;;;;;;;21.85;35.93;99370.98;1851051;76;28341;-65
2021/12/07 04:58:22;;;;;;;1.40;1.40;;;;;;;21.82;35.94;99373.34;1950062;73;27874;-64
2021/12/07 05:01:11;;;;;;;1.47;1.30;;;;;;;21.79;35.98;99380.10;1935073;72;28090;-63
2021/12/07 05:04:07;;;;;;;1.50;1.40;;;;;;;21.81;35.97;99374.39;1948254;73;27926;-63
2021/12/07 05:06:56;;;;;;;1.27;1.27;;;;;;;21.83;35.86;99370.36;1926272;73;28093;-65
2021/12/07 05:10:14;;;;;;;1.60;1.50;;;;;;;21.80;35.90;99379.55;1949543;73;27925;-64
2021/12/07 05:15:31;;;;;;;1.40;1.40;;;;;;;21.82;35.89;99384.27;1955498;72;27983;-66
2021/12/07 05:18:41;;;;;;;1.60;1.50;;;;;;;21.79;35.87;99392.93;1942253;72;28010;-63
2021/12/07 05:24:23;;;;;;;1.20;1.20;;;;;;;21.77;35.92;99385.50;1901005;74;28240;-64
2021/12/07 05:39:37;;;;;;;1.57;1.47;;;;;;;21.74;36.01;99390.05;1856875;76;28359;-63
2021/12/07 05:42:27;;;;;;;1.50;1.40;;;;;;;21.71;36.06;99399.55;1932885;73;27934;-63
2021/12/07 05:45:18;;;;;;;1.30;1.30;;;;;;;21.71;36.08;99399.55;1927304;73;28038;-63
2021/12/07 05:48:08;;;;;;;1.32;1.27;;;;;;;21.72;36.04;99401.75;1932068;74;29011;-63
2021/12/07 05:50:56;;;;;;;1.30;1.30;;;;;;;21.75;36.01;99402.11;1916877;73;28099;-64
2021/12/07 05:53:44;;;;;;;1.20;1.20;;;;;;;21.76;36.00;99400.22;1909909;73;28016;-64
2021/12/07 05:56:33;;;;;;;1.32;1.32;;;;;;;21.77;35.98;99405.48;1946964;73;27913;-64
2021/12/07 05:59:22;;;;;;;1.40;1.40;;;;;;;21.76;35.93;99405.16;1912618;74;27948;-65
2021/12/07 06:02:10;;;;;;;1.20;1.20;;;;;;;21.78;35.98;99409.02;1935446;73;27955;-65
2021/12/07 06:05:00;;;;;;;1.50;1.40;;;;;;;21.74;35.99;99419.59;1935862;73;27981;-64
2021/12/07 06:07:49;;;;;;;1.20;1.20;;;;;;;21.75;36.00;99422.61;1908928;74;28061;-64
2021/12/07 06:10:38;;;;;;;1.30;1.30;;;;;;;21.75;36.01;99419.88;1922712;73;27975;-65
2021/12/07 06:13:27;;;;;;;1.20;1.20;;;;;;;21.73;36.02;99412.98;1920601;73;28040;-63
2021/12/07 06:16:16;;;;;;;1.30;1.30;;;;;;;21.75;36.01;99406.77;1940257;73;27858;-63
2021/12/07 06:19:05;;;;;;;1.10;1.10;;;;;;;21.75;36.01;99416.34;1925527;73;27924;-64
2021/12/07 06:21:56;;;;;;;1.50;1.40;;;;;;;21.73;36.01;99400.67;1925685;73;27917;-63
2021/12/07 06:24:45;;;;;;;1.60;1.50;;;;;;;21.70;35.92;99396.53;1922594;73;27948;-62
2021/12/07 06:27:33;;;;;;;1.70;1.60;;;;;;;21.62;35.58;99402.83;1934043;73;27948;-63
2021/12/07 06:30:22;;;;;;;1.90;1.80;;;;;;;21.60;35.40;99403.06;1912672;74;28058;-64
2021/12/07 06:33:13;;;;;;;1.80;1.70;;;;;;;21.58;35.04;99390.17;1944307;73;27976;-64
2021/12/07 06:36:03;;;;;;;1.80;1.70;;;;;;;21.54;34.78;99395.77;1921138;73;28007;-64
2021/12/07 06:38:52;;;;;;;1.77;1.67;;;;;;;21.50;34.69;99387.73;1912524;74;27960;-64
2021/12/07 06:41:41;;;;;;;1.80;1.70;;;;;;;21.49;34.54;99386.09;1912553;74;27950;-64
2021/12/07 06:44:30;;;;;;;2.17;1.97;;;;;;;21.50;34.50;99382.80;1911008;74;28030;-64
2021/12/07 06:47:20;;;;;;;1.80;1.70;;;;;;;21.48;34.40;99378.94;1933766;73;27996;-64
2021/12/07 06:50:11;;;;;;;1.77;1.67;;;;;;;21.51;34.46;99383.11;1915153;72;28017;-65
2021/12/07 06:53:02;;;;;;;1.85;1.75;;;;;;;21.46;34.46;99373.40;1944242;72;28223;-65
2021/12/07 06:55:50;;;;;;;1.60;1.50;;;;;;;21.41;34.54;99359.06;1939479;73;28051;-64
2021/12/07 06:58:40;;;;;;;1.50;1.50;;;;;;;21.39;34.59;99362.56;1950487;73;27986;-64
2021/12/07 07:01:28;;;;;;;1.92;1.82;;;;;;;21.42;34.64;99363.48;1934849;73;27931;-64
2021/12/07 07:04:16;;;;;;;1.62;1.52;;;;;;;21.44;34.63;99361.87;1937320;73;28104;-64
2021/12/07 07:07:06;;;;;;;1.60;1.50;;;;;;;21.41;34.66;99356.85;1947504;73;27966;-64
2021/12/07 07:09:54;;;;;;;1.62;1.52;;;;;;;21.39;34.68;99358.46;1952072;73;28081;-64
2021/12/07 07:12:44;;;;;;;1.30;1.30;;;;;;;21.42;34.66;99353.07;1961907;71;28030;-65
2021/12/07 07:15:33;;;;;;;1.45;1.45;;;;;;;21.41;34.71;99350.02;1930452;73;28290;-63
2021/12/07 07:18:21;;;;;;;1.57;1.50;;;;;;;21.37;34.77;99345.56;1951316;73;27934;-63
2021/12/07 07:21:10;;;;;;;1.50;1.40;;;;;;;21.37;34.88;99351.03;1965332;72;27927;-64
2021/12/07 07:23:59;;;;;;;1.60;1.50;;;;;;;21.39;34.91;99357.62;1951933;73;28204;-64
2021/12/07 07:26:47;;;;;;;1.87;1.50;;;;;;;21.38;34.93;99363.61;1945259;73;27977;-64
2021/12/07 07:29:36;;;;;;;1.50;1.40;;;;;;;21.38;34.94;99359.51;1939830;73;28155;-64
2021/12/07 07:32:25;;;;;;;1.60;1.50;;;;;;;21.35;34.98;99353.97;1944521;72;27915;-64
2021/12/07 07:35:14;;;;;;;1.95;1.60;;;;;;;21.36;35.03;99343.88;1932701;72;28029;-64
2021/12/07 07:38:03;;;;;;;1.50;1.50;;;;;;;21.38;35.07;99343.67;1935208;72;28097;-64
2021/12/07 07:40:52;;;;;;;1.45;1.35;;;;;;;21.38;35.11;99336.28;1941260;73;28091;-63
2021/12/07 07:43:42;;;;;;;1.40;1.30;;;;;;;21.36;35.10;99331.59;1943987;72;28422;-65
2021/12/07 07:46:35;;;;;;;1.90;1.40;;;;;;;21.35;35.19;99336.77;1952690;72;28061;-62
2021/12/07 07:49:23;;;;;;;1.30;1.30;;;;;;;21.38;35.20;99335.48;1941773;73;28048;-63
2021/12/07 07:52:12;;;;;;;1.30;1.30;;;;;;;21.34;35.21;99337.82;1956306;72;28148;-62
2021/12/07 07:55:00;;;;;;;2.50;1.60;;;;;;;21.33;35.21;99340.27;1940941;73;28091;-63
2021/12/07 07:57:49;;;;;;;1.70;1.60;;;;;;;21.34;35.22;99348.75;1929692;74;28520;-64
2021/12/07 08:00:39;;;;;;;2.30;1.40;;;;;;;21.37;35.19;99348.30;1935481;73;28076;-64
2021/12/07 08:03:27;;;;;;;2.05;1.67;;;;;;;21.37;35.24;99348.30;1942544;73;27971;-64
2021/12/07 08:06:16;;;;;;;2.60;1.72;;;;;;;21.37;35.32;99352.92;1922623;73;28156;-64
2021/12/07 08:09:10;;;;;;;4.57;1.80;;;;;;;21.38;35.40;99362.24;1908601;74;27953;-64
2021/12/07 08:11:55;;;;;;;1.35;1.35;;;;;;;21.35;35.45;99358.63;1939732;73;28072;-64
2021/12/07 08:14:44;;;;;;;1.67;1.57;;;;;;;21.34;35.50;99358.31;1919312;73;28223;-64
2021/12/07 08:17:32;;;;;;;1.70;1.50;;;;;;;21.33;35.54;99352.56;1955652;72;27916;-63
2021/12/07 08:20:21;;;;;;;3.50;1.50;;;;;;;21.32;35.62;99353.61;1946812;72;27989;-63
2021/12/07 08:23:11;;;;;;;1.67;1.57;;;;;;;21.29;35.72;99354.91;1946205;72;28178;-64
2021/12/07 08:25:59;;;;;;;1.43;1.33;;;;;;;21.31;35.72;99359.60;1932914;73;27999;-63
2021/12/07 08:28:48;;;;;;;1.52;1.42;;;;;;;21.28;35.73;99355.14;1936213;73;28027;-64
2021/12/07 08:31:38;;;;;;;2.42;1.60;;;;;;;21.30;35.76;99350.28;1924357;73;27945;-63
2021/12/07 08:34:27;;;;;;;1.72;1.62;;;;;;;21.28;35.81;99351.85;1919283;73;28198;-63
2021/12/07 08:37:15;;;;;;;2.30;1.40;;;;;;;21.27;35.85;99354.30;1942228;73;28139;-64
2021/12/07 08:40:05;;;;;;;1.62;1.52;;;;;;;21.27;35.88;99351.57;1908937;74;28096;-64
2021/12/07 08:42:56;;;;;;;1.60;1.50;;;;;;;21.26;35.91;99348.52;1917753;73;27952;-65
2021/12/07 08:45:45;;;;;;;1.10;1.10;;;;;;;21.26;35.94;99354.55;1941719;73;27885;-63
2021/12/07 08:48:35;;;;;;;1.50;1.40;;;;;;;21.26;35.95;99349.08;1923114;73;28073;-63
2021/12/07 08:51:24;;;;;;;1.50;1.40;;;;;;;21.21;36.00;99347.56;1905548;74;28029;-63
2021/12/07 08:54:32;;;;;;;2.10;1.40;;;;;;;21.25;35.99;99335.10;1939105;73;27894;-63
2021/12/07 09:00:18;;;;;;;2.42;1.60;;;;;;;21.21;36.00;99325.15;1937193;73;28006;-65
2021/12/07 09:03:07;;;;;;;2.00;1.80;;;;;;;21.18;36.06;99317.96;1927848;73;28003;-63
2021/12/07 09:05:56;;;;;;;2.00;1.80;;;;;;;21.20;36.03;99311.20;1914004;73;28257;-63
2021/12/07 09:09:03;;;;;;;2.00;1.80;;;;;;;21.17;36.10;99296.63;1946055;73;27900;-64
2021/12/07 09:11:54;;;;;;;2.00;1.90;;;;;;;21.17;36.09;99285.70;1923532;73;28063;-64
2021/12/07 09:14:43;;;;;;;2.00;1.90;;;;;;;21.19;36.09;99290.41;1925074;73;27972;-64
2021/12/07 09:17:32;;;;;;;2.30;2.10;;;;;;;21.23;36.02;99286.70;1929494;73;28100;-64
2021/12/07 09:20:20;;;;;;;2.30;2.20;;;;;;;21.23;35.97;99292.16;1934699;73;28152;-64
2021/12/07 09:23:09;;;;;;;2.62;2.42;;;;;;;21.26;35.95;99280.78;1916770;73;28014;-64
2021/12/07 09:25:57;;;;;;;2.45;2.27;;;;;;;21.27;35.88;99275.59;1925302;73;28294;-64
2021/12/07 09:28:46;;;;;;;4.03;2.50;;;;;;;21.25;35.89;99275.00;1912550;74;28059;-63
2021/12/07 09:31:37;;;;;;;2.60;2.40;;;;;;;21.21;35.92;99265.61;1912399;74;28059;-63
2021/12/07 09:34:25;;;;;;;2.50;2.30;;;;;;;21.25;35.94;99262.71;1946688;73;27999;-64
2021/12/07 09:37:14;;;;;;;2.60;2.40;;;;;;;21.25;35.89;99259.45;1947026;73;27933;-65
2021/12/07 09:40:07;;;;;;;3.62;2.58;;;;;;;21.23;35.91;99252.55;1912625;74;27966;-63
2021/12/07 09:42:57;;;;;;;2.50;2.30;;;;;;;21.23;35.90;99260.22;1941060;73;28048;-64
2021/12/07 09:45:48;;;;;;;2.67;2.47;;;;;;;21.23;35.88;99270.30;1942733;73;27954;-63
2021/12/07 09:48:39;;;;;;;2.70;2.50;;;;;;;21.23;35.87;99266.21;1934435;73;27919;-65
2021/12/07 09:51:28;;;;;;;3.05;2.80;;;;;;;21.21;35.88;99266.98;1930599;73;28102;-65
2021/12/07 09:54:18;;;;;;;2.58;2.40;;;;;;;21.20;35.85;99270.76;1935574;73;28028;-65
2021/12/07 09:57:07;;;;;;;2.90;2.70;;;;;;;21.20;35.90;99276.22;1951249;72;27940;-64
2021/12/07 09:59:55;;;;;;;2.90;2.70;;;;;;;21.22;35.87;99271.36;1946240;73;28048;-64
2021/12/07 10:02:43;;;;;;;3.67;2.77;;;;;;;21.19;35.82;99259.55;1939683;72;34901;-64
2021/12/07 10:05:34;;;;;;;2.90;2.70;;;;;;;21.17;35.84;99259.76;1951014;72;28140;-64
2021/12/07 10:08:23;;;;;;;3.30;3.00;;;;;;;21.18;35.83;99256.50;1950672;72;28024;-63
2021/12/07 10:11:13;;;;;;;3.02;2.75;;;;;;;21.19;35.80;99243.16;1948517;73;28524;-64
2021/12/07 10:14:02;;;;;;;3.25;2.90;;;;;;;21.21;35.76;99242.39;1936811;73;28029;-64
2021/12/07 10:16:52;;;;;;;3.15;2.85;;;;;;;21.21;35.77;99249.22;1935714;72;27932;-64
2021/12/07 10:19:45;;;;;;;3.37;3.08;;;;;;;21.22;35.74;99237.21;1936345;72;28154;-64
2021/12/07 10:22:35;;;;;;;3.10;2.90;;;;;;;21.22;35.71;99229.86;1950018;72;28077;-63
2021/12/07 10:25:27;;;;;;;3.22;3.02;;;;;;;21.23;35.70;99232.06;1948620;72;28119;-63
2021/12/07 10:28:42;;;;;;;3.70;3.40;;;;;;;21.22;35.70;99223.55;1960777;72;27919;-64
2021/12/07 10:31:48;;;;;;;3.50;3.20;;;;;;;21.23;35.67;99207.48;1936423;72;28039;-64
2021/12/07 10:34:40;;;;;;;3.52;3.30;;;;;;;21.18;35.75;99201.35;1947543;72;28025;-64
2021/12/07 10:37:30;;;;;;;3.40;3.10;;;;;;;21.15;35.75;99198.23;1947614;72;28021;-64
2021/12/07 10:40:20;;;;;;;3.60;3.30;;;;;;;21.12;35.77;99185.87;1947305;73;28081;-63
2021/12/07 10:43:08;;;;;;;3.33;3.02;;;;;;;21.16;35.73;99174.80;1936724;72;27989;-64
2021/12/07 10:45:57;;;;;;;3.40;3.12;;;;;;;21.16;35.71;99169.87;1953743;72;28177;-64
2021/12/07 10:48:46;;;;;;;3.60;3.20;;;;;;;21.19;35.70;99165.31;1949160;72;28098;-64
2021/12/07 10:51:35;;;;;;;3.42;3.15;;;;;;;21.18;35.66;99161.74;1942143;72;28154;-64
2021/12/07 10:54:25;;;;;;;3.70;3.40;;;;;;;21.20;35.63;99145.11;1960182;72;27901;-63
2021/12/07 10:57:19;;;;;;;3.30;3.10;;;;;;;21.19;35.65;99133.91;1927065;72;27992;-64
2021/12/07 11:00:20;;;;;;;3.45;3.15;;;;;;;21.18;35.63;99126.77;1942114;73;28210;-64
2021/12/07 11:03:17;;;;;;;3.80;3.50;;;;;;;21.17;35.67;99112.80;1922673;73;28156;-65
2021/12/07 11:06:05;;;;;;;3.67;3.42;;;;;;;21.13;35.72;99096.59;1922218;73;28099;-64
2021/12/07 11:08:58;;;;;;;3.60;3.30;;;;;;;21.14;35.64;99089.52;1918848;73;27967;-64
2021/12/07 11:11:47;;;;;;;3.80;3.50;;;;;;;21.18;35.63;99075.70;1919755;73;28190;-64
2021/12/07 11:14:57;;;;;;;3.70;3.40;;;;;;;21.18;35.58;99066.67;1934739;73;28118;-65
2021/12/07 11:17:45;;;;;;;3.67;3.47;;;;;;;21.20;35.57;99057.70;1934284;73;28072;-64
2021/12/07 11:20:36;;;;;;;4.00;3.70;;;;;;;21.15;35.59;99048.02;1909165;74;28038;-64
2021/12/07 11:23:31;;;;;;;4.03;3.70;;;;;;;21.14;35.60;99045.00;1936146;73;28098;-63
2021/12/07 11:32:18;;;;;;;4.37;3.98;;;;;;;21.13;35.61;99048.79;1927022;73;27917;-64
2021/12/07 11:35:11;;;;;;;4.78;4.37;;;;;;;21.09;35.64;99034.79;1943060;73;28354;-63
2021/12/07 11:38:05;;;;;;;5.13;4.27;;;;;;;21.11;35.44;99010.80;1939666;73;27988;-63
2021/12/07 11:40:56;;;;;;;4.42;4.03;;;;;;;21.11;35.44;99010.80;1931740;73;28075;-64
2021/12/07 11:44:00;;;;;;;4.47;4.10;;;;;;;21.09;35.65;99002.02;1942429;73;27972;-64
2021/12/07 11:46:51;;;;;;;4.55;4.15;;;;;;;21.10;35.58;98994.11;1925003;73;28151;-63
2021/12/07 11:49:40;;;;;;;4.70;4.30;;;;;;;21.06;35.67;98987.46;1883347;75;28147;-63
2021/12/07 11:52:29;;;;;;;5.08;4.60;;;;;;;21.10;35.63;98988.64;1904377;75;28042;-64
2021/12/07 11:55:19;;;;;;;4.92;4.50;;;;;;;21.10;35.57;98990.02;1882181;75;28159;-64
2021/12/07 11:58:10;;;;;;;5.15;4.65;;;;;;;21.10;35.60;98989.17;1885465;75;28046;-64
2021/12/07 12:00:59;;;;;;;5.20;4.70;;;;;;;21.11;35.54;98972.57;1918336;74;28524;-64
2021/12/07 12:03:47;;;;;;;5.35;4.75;;;;;;;21.12;35.58;98982.41;1923830;73;27999;-63
2021/12/07 12:06:38;;;;;;;5.05;4.55;;;;;;;21.10;35.56;98972.26;1942086;73;28138;-63
2021/12/07 12:09:27;;;;;;;4.90;4.50;;;;;;;21.10;35.61;98958.61;1934899;73;28002;-63
2021/12/07 12:12:32;;;;;;;5.37;4.85;;;;;;;21.09;35.52;98953.39;1946501;73;28052;-63
2021/12/07 12:15:26;;;;;;;5.97;5.37;;;;;;;21.10;35.54;98949.58;1933527;73;27943;-64
2021/12/07 12:18:20;;;;;;;5.90;5.30;;;;;;;21.12;35.52;98926.42;1943505;73;28060;-65
2021/12/07 12:21:18;;;;;;;5.93;5.17;;;;;;;21.06;35.56;98908.27;1937469;73;28074;-64
2021/12/07 12:24:26;;;;;;;5.58;5.08;;;;;;;21.10;35.53;98895.80;1918652;74;28220;-63
2021/12/07 12:27:25;;;;;;;6.97;5.50;;;;;;;21.12;35.52;98878.63;1897693;74;28097;-64
2021/12/07 12:30:20;;;;;;;7.05;5.70;;;;;;;21.11;35.51;98874.25;1918609;74;27955;-64
2021/12/07 12:33:12;;;;;;;6.42;5.50;;;;;;;21.09;35.50;98866.84;1926982;73;28104;-64
2021/12/07 12:36:02;;;;;;;6.08;5.47;;;;;;;21.07;35.50;98853.97;1939398;73;27945;-64
2021/12/07 12:39:02;;;;;;;5.92;5.33;;;;;;;21.14;35.44;98857.92;1932697;73;28179;-63
2021/12/07 12:42:01;;;;;;;6.60;5.60;;;;;;;21.19;35.36;98847.12;1897925;74;28193;-64
2021/12/07 12:44:52;;;;;;;6.10;5.50;;;;;;;21.14;35.45;98826.52;1952914;73;28071;-63
2021/12/07 12:47:41;;;;;;;6.08;5.47;;;;;;;21.12;35.45;98832.77;1942280;73;28016;-64
2021/12/07 12:50:35;;;;;;;7.05;5.70;;;;;;;21.14;35.46;98829.25;1942284;73;28046;-64
2021/12/07 12:53:30;;;;;;;6.53;5.53;;;;;;;21.12;35.49;98819.11;1952381;73;27938;-65
2021/12/07 12:56:23;;;;;;;7.90;6.08;;;;;;;21.11;35.48;98811.98;1918573;74;31885;-64
2021/12/07 12:59:13;;;;;;;5.92;5.33;;;;;;;21.16;35.35;98801.16;1945015;73;30108;-63
2021/12/07 13:02:02;;;;;;;6.53;5.80;;;;;;;21.17;35.36;98800.07;1939778;73;28037;-64
2021/12/07 13:05:04;;;;;;;7.60;6.17;;;;;;;21.18;35.36;98803.11;1942352;73;28159;-64
2021/12/07 13:07:55;;;;;;;6.30;5.65;;;;;;;21.21;35.23;98794.44;1925741;73;27922;-65
2021/12/07 13:10:59;;;;;;;6.50;5.90;;;;;;;21.20;35.30;98792.77;1942877;73;27974;-65
2021/12/07 13:13:49;;;;;;;8.30;6.17;;;;;;;21.18;35.30;98787.56;1942818;73;28598;-64
2021/12/07 13:16:39;;;;;;;6.12;5.53;;;;;;;21.16;35.29;98769.22;1948019;72;28033;-64
2021/12/07 13:19:29;;;;;;;6.15;5.55;;;;;;;21.18;35.26;98764.88;1979068;72;27991;-64
2021/12/07 13:22:18;;;;;;;6.20;5.60;;;;;;;21.17;35.29;98775.48;1962112;72;28488;-64
2021/12/07 13:25:13;;;;;;;6.95;5.65;;;;;;;21.17;35.25;98767.30;1943815;73;30086;-64
2021/12/07 13:28:13;;;;;;;6.17;5.58;;;;;;;21.15;35.31;98776.27;1943605;73;28073;-64
2021/12/07 13:31:04;;;;;;;7.07;5.83;;;;;;;21.15;35.31;98781.73;1943652;73;27972;-64
2021/12/07 13:33:57;;;;;;;6.15;5.55;;;;;;;21.11;35.36;98776.47;1943549;73;27958;-64
2021/12/07 13:36:58;;;;;;;6.12;5.53;;;;;;;21.12;35.40;98775.42;1957980;72;28057;-64
2021/12/07 13:39:49;;;;;;;6.40;5.70;;;;;;;21.07;35.42;98769.31;1944320;72;28176;-63
2021/12/07 13:42:41;;;;;;;6.50;5.80;;;;;;;21.07;35.42;98768.48;1943737;73;28016;-63
2021/12/07 13:45:29;;;;;;;6.90;5.87;;;;;;;21.05;35.43;98761.88;1943342;73;27944;-65
2021/12/07 13:48:20;;;;;;;6.10;5.50;;;;;;;21.03;35.47;98754.96;1943559;73;27971;-64
2021/12/07 13:51:11;;;;;;;6.10;5.57;;;;;;;21.01;35.48;98741.56;1943637;73;28116;-64
2021/12/07 13:54:00;;;;;;;6.62;5.62;;;;;;;20.98;35.49;98735.77;1943512;73;28034;-63
2021/12/07 13:56:53;;;;;;;6.05;5.55;;;;;;;20.98;35.51;98724.85;1967258;72;28498;-64
2021/12/07 13:59:41;;;;;;;6.80;6.10;;;;;;;20.97;35.52;98709.00;1937902;73;28036;-63
2021/12/07 14:02:30;;;;;;;6.72;5.70;;;;;;;21.00;35.48;98704.95;1941156;73;28024;-64
2021/12/07 14:05:25;;;;;;;6.65;5.70;;;;;;;20.96;35.55;98688.75;1933996;72;27937;-64
2021/12/07 14:08:16;;;;;;;6.33;5.65;;;;;;;20.98;35.51;98681.97;1962886;72;28097;-64
2021/12/07 14:11:04;;;;;;;6.08;5.47;;;;;;;20.95;35.53;98671.56;1928771;74;28081;-64
2021/12/07 14:13:53;;;;;;;6.28;5.65;;;;;;;21.00;35.49;98666.20;1928756;74;28013;-64
2021/12/07 14:16:44;;;;;;;7.58;5.95;;;;;;;21.00;35.42;98664.00;1952205;72;28009;-63
2021/12/07 14:19:33;;;;;;;7.45;6.05;;;;;;;20.97;35.51;98670.78;1928850;74;28198;-63
2021/12/07 14:22:21;;;;;;;8.68;6.08;;;;;;;20.97;35.50;98648.94;1912972;74;28088;-64
2021/12/07 14:25:09;;;;;;;7.17;5.87;;;;;;;20.98;35.51;98648.41;1933980;73;28055;-63
2021/12/07 14:27:58;;;;;;;6.45;5.75;;;;;;;20.94;35.51;98645.85;1935134;73;28040;-63
2021/12/07 14:30:47;;;;;;;8.20;6.03;;;;;;;20.93;35.53;98640.12;1935958;73;28120;-63
2021/12/07 14:33:57;;;;;;;7.47;5.70;;;;;;;20.93;35.56;98647.78;1928817;74;28168;-63
2021/12/07 14:36:54;;;;;;;6.10;5.60;;;;;;;20.92;35.53;98645.27;1942896;72;27986;-63
2021/12/07 14:39:46;;;;;;;6.67;5.97;;;;;;;20.87;35.61;98639.71;1963115;72;28136;-64
2021/12/07 14:42:35;;;;;;;8.28;6.20;;;;;;;20.85;35.65;98641.33;1938189;72;28657;-64
2021/12/07 14:45:23;;;;;;;7.47;5.65;;;;;;;20.86;35.62;98640.80;1935506;73;28063;-64
2021/12/07 14:48:12;;;;;;;6.73;5.97;;;;;;;20.84;35.61;98644.31;1928774;74;28048;-63
2021/12/07 14:51:09;;;;;;;6.27;5.67;;;;;;;20.84;35.61;98644.31;1952266;72;28009;-63
2021/12/07 14:54:00;;;;;;;6.70;5.62;;;;;;;20.84;35.67;98652.50;1956913;72;28041;-64
2021/12/07 14:56:52;;;;;;;8.20;6.12;;;;;;;20.82;35.70;98651.92;1940767;72;28120;-63
2021/12/07 14:59:43;;;;;;;6.45;5.45;;;;;;;20.84;35.68;98645.12;1945690;72;28373;-63
2021/12/07 15:02:35;;;;;;;6.08;5.40;;;;;;;20.86;35.64;98646.26;1929035;72;28227;-63